sensor_id;sensor_type;location;lat;lon;timestamp;P1;durP1;ratioP1;P2;durP2;ratioP2
77984;SDS011;67177;47.240;-1.546;2023-06-26T00:00:05;10.20;;;1.80;;
77984;SDS011;67177;47.240;-1.546;2023-06-26T00:02:32;8.57;;;1.83;;
77984;SDS011;67177;47.240;-1.546;2023-06-26T00:04:58;6.50;;;1.30;;
77984;SDS011;67177;47.240;-1.546;2023-06-26T00:07:27;5.75;;;1.20;;
77984;SDS011;67177;47.240;-1.546;2023-06-26T00:09:53;8.10;;;1.50;;
77984;SDS011;67177;47.240;-1.546;2023-06-26T00:12:19;6.77;;;1.47;;
77984;SDS011;67177;47.240;-1.546;2023-06-26T00:14:44;6.68;;;1.33;;
77984;SDS011;67177;47.240;-1.546;2023-06-26T00:17:11;9.37;;;1.50;;
77984;SDS011;67177;47.240;-1.546;2023-06-26T00:19:36;8.57;;;1.25;;
77984;SDS011;67177;47.240;-1.546;2023-06-26T00:22:02;6.87;;;1.30;;
77984;SDS011;67177;47.240;-1.546;2023-06-26T00:24:28;7.65;;;1.40;;
77984;SDS011;67177;47.240;-1.546;2023-06-26T00:26:53;7.50;;;1.73;;
77984;SDS011;67177;47.240;-1.546;2023-06-26T00:29:19;7.38;;;1.30;;
77984;SDS011;67177;47.240;-1.546;2023-06-26T00:31:45;8.30;;;1.50;;
77984;SDS011;67177;47.240;-1.546;2023-06-26T00:34:11;5.33;;;1.20;;
77984;SDS011;67177;47.240;-1.546;2023-06-26T00:36:36;4.35;;;1.10;;
77984;SDS011;67177;47.240;-1.546;2023-06-26T00:39:02;7.85;;;1.40;;
77984;SDS011;67177;47.240;-1.546;2023-06-26T00:41:28;6.65;;;1.20;;
77984;SDS011;67177;47.240;-1.546;2023-06-26T00:43:54;6.30;;;1.40;;
77984;SDS011;67177;47.240;-1.546;2023-06-26T00:46:20;6.05;;;1.40;;
77984;SDS011;67177;47.240;-1.546;2023-06-26T00:48:46;6.70;;;1.50;;
77984;SDS011;67177;47.240;-1.546;2023-06-26T00:51:13;5.55;;;1.20;;
77984;SDS011;67177;47.240;-1.546;2023-06-26T00:53:39;6.45;;;1.38;;
77984;SDS011;67177;47.240;-1.546;2023-06-26T00:56:05;5.15;;;1.10;;
77984;SDS011;67177;47.240;-1.546;2023-06-26T00:58:31;4.10;;;1.10;;
77984;SDS011;67177;47.240;-1.546;2023-06-26T01:00:57;6.17;;;1.20;;
77984;SDS011;67177;47.240;-1.546;2023-06-26T01:03:23;3.80;;;1.10;;
77984;SDS011;67177;47.240;-1.546;2023-06-26T01:05:51;5.43;;;1.17;;
77984;SDS011;67177;47.240;-1.546;2023-06-26T01:08:19;3.63;;;0.93;;
77984;SDS011;67177;47.240;-1.546;2023-06-26T01:10:46;3.22;;;0.90;;
77984;SDS011;67177;47.240;-1.546;2023-06-26T01:13:15;4.70;;;1.10;;
77984;SDS011;67177;47.240;-1.546;2023-06-26T01:15:41;7.23;;;1.30;;
77984;SDS011;67177;47.240;-1.546;2023-06-26T01:18:07;4.53;;;1.17;;
77984;SDS011;67177;47.240;-1.546;2023-06-26T01:20:36;3.47;;;0.90;;
77984;SDS011;67177;47.240;-1.546;2023-06-26T01:26:07;5.32;;;1.15;;
77984;SDS011;67177;47.240;-1.546;2023-06-26T01:29:03;5.18;;;1.15;;
77984;SDS011;67177;47.240;-1.546;2023-06-26T01:31:31;3.75;;;1.10;;
77984;SDS011;67177;47.240;-1.546;2023-06-26T01:33:58;5.80;;;1.27;;
77984;SDS011;67177;47.240;-1.546;2023-06-26T01:36:25;6.77;;;1.10;;
77984;SDS011;67177;47.240;-1.546;2023-06-26T01:38:51;5.82;;;1.30;;
77984;SDS011;67177;47.240;-1.546;2023-06-26T01:41:17;4.57;;;1.00;;
77984;SDS011;67177;47.240;-1.546;2023-06-26T01:46:45;3.40;;;0.98;;
77984;SDS011;67177;47.240;-1.546;2023-06-26T01:57:33;4.90;;;1.17;;
77984;SDS011;67177;47.240;-1.546;2023-06-26T02:00:00;5.53;;;1.10;;
77984;SDS011;67177;47.240;-1.546;2023-06-26T02:02:28;4.78;;;1.15;;
77984;SDS011;67177;47.240;-1.546;2023-06-26T02:04:54;6.18;;;1.50;;
77984;SDS011;67177;47.240;-1.546;2023-06-26T02:07:20;5.80;;;1.40;;
77984;SDS011;67177;47.240;-1.546;2023-06-26T02:09:46;7.13;;;1.48;;
77984;SDS011;67177;47.240;-1.546;2023-06-26T02:12:11;4.37;;;1.17;;
77984;SDS011;67177;47.240;-1.546;2023-06-26T02:14:37;3.22;;;0.90;;
77984;SDS011;67177;47.240;-1.546;2023-06-26T02:17:03;4.83;;;1.03;;
77984;SDS011;67177;47.240;-1.546;2023-06-26T02:19:29;6.55;;;1.27;;
77984;SDS011;67177;47.240;-1.546;2023-06-26T02:21:54;5.03;;;1.17;;
77984;SDS011;67177;47.240;-1.546;2023-06-26T02:24:20;3.15;;;0.90;;
77984;SDS011;67177;47.240;-1.546;2023-06-26T02:26:46;4.13;;;0.97;;
77984;SDS011;67177;47.240;-1.546;2023-06-26T02:29:12;4.80;;;1.00;;
77984;SDS011;67177;47.240;-1.546;2023-06-26T02:31:38;4.43;;;1.02;;
77984;SDS011;67177;47.240;-1.546;2023-06-26T02:34:03;6.18;;;1.17;;
77984;SDS011;67177;47.240;-1.546;2023-06-26T02:36:29;6.20;;;1.00;;
77984;SDS011;67177;47.240;-1.546;2023-06-26T02:38:55;3.75;;;1.00;;
77984;SDS011;67177;47.240;-1.546;2023-06-26T02:41:21;4.60;;;1.10;;
77984;SDS011;67177;47.240;-1.546;2023-06-26T02:43:46;5.63;;;1.27;;
77984;SDS011;67177;47.240;-1.546;2023-06-26T02:46:12;7.67;;;1.47;;
77984;SDS011;67177;47.240;-1.546;2023-06-26T02:48:38;4.55;;;1.20;;
77984;SDS011;67177;47.240;-1.546;2023-06-26T02:51:03;3.83;;;1.07;;
77984;SDS011;67177;47.240;-1.546;2023-06-26T02:53:29;3.90;;;1.05;;
77984;SDS011;67177;47.240;-1.546;2023-06-26T02:55:56;3.67;;;1.00;;
77984;SDS011;67177;47.240;-1.546;2023-06-26T02:58:21;5.25;;;1.30;;
77984;SDS011;67177;47.240;-1.546;2023-06-26T03:00:47;4.40;;;1.30;;
77984;SDS011;67177;47.240;-1.546;2023-06-26T03:03:13;5.40;;;1.20;;
77984;SDS011;67177;47.240;-1.546;2023-06-26T03:05:39;4.15;;;1.20;;
77984;SDS011;67177;47.240;-1.546;2023-06-26T03:08:04;5.32;;;1.42;;
77984;SDS011;67177;47.240;-1.546;2023-06-26T03:10:30;5.18;;;1.20;;
77984;SDS011;67177;47.240;-1.546;2023-06-26T03:12:56;4.97;;;1.20;;
77984;SDS011;67177;47.240;-1.546;2023-06-26T03:15:22;6.15;;;1.20;;
77984;SDS011;67177;47.240;-1.546;2023-06-26T03:17:47;4.38;;;1.20;;
77984;SDS011;67177;47.240;-1.546;2023-06-26T03:20:13;4.33;;;1.10;;
77984;SDS011;67177;47.240;-1.546;2023-06-26T03:22:40;3.95;;;1.20;;
77984;SDS011;67177;47.240;-1.546;2023-06-26T03:25:06;3.73;;;1.00;;
77984;SDS011;67177;47.240;-1.546;2023-06-26T03:27:32;4.45;;;1.00;;
77984;SDS011;67177;47.240;-1.546;2023-06-26T03:29:57;3.85;;;1.10;;
77984;SDS011;67177;47.240;-1.546;2023-06-26T03:32:23;4.83;;;1.33;;
77984;SDS011;67177;47.240;-1.546;2023-06-26T03:34:48;3.50;;;1.13;;
77984;SDS011;67177;47.240;-1.546;2023-06-26T03:37:14;5.38;;;1.02;;
77984;SDS011;67177;47.240;-1.546;2023-06-26T03:39:40;5.77;;;1.33;;
77984;SDS011;67177;47.240;-1.546;2023-06-26T03:42:06;3.83;;;1.20;;
77984;SDS011;67177;47.240;-1.546;2023-06-26T03:44:32;3.60;;;1.00;;
77984;SDS011;67177;47.240;-1.546;2023-06-26T03:46:58;2.90;;;0.90;;
77984;SDS011;67177;47.240;-1.546;2023-06-26T03:49:23;4.60;;;1.00;;
77984;SDS011;67177;47.240;-1.546;2023-06-26T03:51:49;2.75;;;0.80;;
77984;SDS011;67177;47.240;-1.546;2023-06-26T03:54:15;3.13;;;0.80;;
77984;SDS011;67177;47.240;-1.546;2023-06-26T03:56:40;3.97;;;1.10;;
77984;SDS011;67177;47.240;-1.546;2023-06-26T03:59:06;3.27;;;1.03;;
77984;SDS011;67177;47.240;-1.546;2023-06-26T04:01:31;4.07;;;0.90;;
77984;SDS011;67177;47.240;-1.546;2023-06-26T04:03:57;3.00;;;0.80;;
77984;SDS011;67177;47.240;-1.546;2023-06-26T04:06:23;3.33;;;0.80;;
77984;SDS011;67177;47.240;-1.546;2023-06-26T04:08:48;3.85;;;1.00;;
77984;SDS011;67177;47.240;-1.546;2023-06-26T04:11:14;4.23;;;1.20;;
77984;SDS011;67177;47.240;-1.546;2023-06-26T04:13:39;3.95;;;1.02;;
77984;SDS011;67177;47.240;-1.546;2023-06-26T04:16:05;4.20;;;0.90;;
77984;SDS011;67177;47.240;-1.546;2023-06-26T04:18:31;3.38;;;0.90;;
77984;SDS011;67177;47.240;-1.546;2023-06-26T04:21:05;5.00;;;1.10;;
77984;SDS011;67177;47.240;-1.546;2023-06-26T04:23:33;3.35;;;0.98;;
77984;SDS011;67177;47.240;-1.546;2023-06-26T04:25:59;4.13;;;1.13;;
77984;SDS011;67177;47.240;-1.546;2023-06-26T04:28:24;5.37;;;1.10;;
77984;SDS011;67177;47.240;-1.546;2023-06-26T04:30:50;4.75;;;1.10;;
77984;SDS011;67177;47.240;-1.546;2023-06-26T04:33:16;5.07;;;1.20;;
77984;SDS011;67177;47.240;-1.546;2023-06-26T04:35:41;3.78;;;1.05;;
77984;SDS011;67177;47.240;-1.546;2023-06-26T04:38:09;3.57;;;1.00;;
77984;SDS011;67177;47.240;-1.546;2023-06-26T04:40:36;3.10;;;0.90;;
77984;SDS011;67177;47.240;-1.546;2023-06-26T04:43:01;4.60;;;1.08;;
77984;SDS011;67177;47.240;-1.546;2023-06-26T04:45:27;3.43;;;0.80;;
77984;SDS011;67177;47.240;-1.546;2023-06-26T04:47:53;3.50;;;1.00;;
77984;SDS011;67177;47.240;-1.546;2023-06-26T04:50:19;3.40;;;0.93;;
77984;SDS011;67177;47.240;-1.546;2023-06-26T04:52:44;3.78;;;1.00;;
77984;SDS011;67177;47.240;-1.546;2023-06-26T04:55:10;3.60;;;1.00;;
77984;SDS011;67177;47.240;-1.546;2023-06-26T04:57:36;3.67;;;0.90;;
77984;SDS011;67177;47.240;-1.546;2023-06-26T05:00:02;3.47;;;0.90;;
77984;SDS011;67177;47.240;-1.546;2023-06-26T05:02:34;2.90;;;1.05;;
77984;SDS011;67177;47.240;-1.546;2023-06-26T05:05:00;2.90;;;0.83;;
77984;SDS011;67177;47.240;-1.546;2023-06-26T05:07:26;2.67;;;0.80;;
77984;SDS011;67177;47.240;-1.546;2023-06-26T05:09:51;3.37;;;0.80;;
77984;SDS011;67177;47.240;-1.546;2023-06-26T05:12:17;4.53;;;0.93;;
77984;SDS011;67177;47.240;-1.546;2023-06-26T05:14:43;2.90;;;0.90;;
77984;SDS011;67177;47.240;-1.546;2023-06-26T05:17:08;2.97;;;0.90;;
77984;SDS011;67177;47.240;-1.546;2023-06-26T05:19:34;3.40;;;0.90;;
77984;SDS011;67177;47.240;-1.546;2023-06-26T05:22:00;3.63;;;1.00;;
77984;SDS011;67177;47.240;-1.546;2023-06-26T05:24:29;4.35;;;1.08;;
77984;SDS011;67177;47.240;-1.546;2023-06-26T05:26:56;4.13;;;1.30;;
77984;SDS011;67177;47.240;-1.546;2023-06-26T05:29:22;4.45;;;1.30;;
77984;SDS011;67177;47.240;-1.546;2023-06-26T05:31:47;4.97;;;1.40;;
77984;SDS011;67177;47.240;-1.546;2023-06-26T05:34:16;4.38;;;1.20;;
77984;SDS011;67177;47.240;-1.546;2023-06-26T05:36:44;4.20;;;1.20;;
77984;SDS011;67177;47.240;-1.546;2023-06-26T05:39:09;3.33;;;1.02;;
77984;SDS011;67177;47.240;-1.546;2023-06-26T05:41:35;4.50;;;1.17;;
77984;SDS011;67177;47.240;-1.546;2023-06-26T05:44:01;3.78;;;1.17;;
77984;SDS011;67177;47.240;-1.546;2023-06-26T05:46:27;4.80;;;1.20;;
77984;SDS011;67177;47.240;-1.546;2023-06-26T05:48:53;4.38;;;1.10;;
77984;SDS011;67177;47.240;-1.546;2023-06-26T05:51:18;4.07;;;1.20;;
77984;SDS011;67177;47.240;-1.546;2023-06-26T05:53:44;4.13;;;1.20;;
77984;SDS011;67177;47.240;-1.546;2023-06-26T05:56:10;3.97;;;1.10;;
77984;SDS011;67177;47.240;-1.546;2023-06-26T05:58:36;4.50;;;1.00;;
77984;SDS011;67177;47.240;-1.546;2023-06-26T06:01:02;3.67;;;1.00;;
77984;SDS011;67177;47.240;-1.546;2023-06-26T06:03:27;4.30;;;1.20;;
77984;SDS011;67177;47.240;-1.546;2023-06-26T06:05:53;4.50;;;1.30;;
77984;SDS011;67177;47.240;-1.546;2023-06-26T06:08:19;5.23;;;1.20;;
77984;SDS011;67177;47.240;-1.546;2023-06-26T06:10:44;5.32;;;1.40;;
77984;SDS011;67177;47.240;-1.546;2023-06-26T06:13:10;5.38;;;1.52;;
77984;SDS011;67177;47.240;-1.546;2023-06-26T06:15:35;5.77;;;1.50;;
77984;SDS011;67177;47.240;-1.546;2023-06-26T06:18:01;5.05;;;1.60;;
77984;SDS011;67177;47.240;-1.546;2023-06-26T06:20:27;4.17;;;1.30;;
77984;SDS011;67177;47.240;-1.546;2023-06-26T06:22:52;5.22;;;1.52;;
77984;SDS011;67177;47.240;-1.546;2023-06-26T06:25:18;5.03;;;1.40;;
77984;SDS011;67177;47.240;-1.546;2023-06-26T06:27:44;3.50;;;1.10;;
77984;SDS011;67177;47.240;-1.546;2023-06-26T06:30:10;4.50;;;1.20;;
77984;SDS011;67177;47.240;-1.546;2023-06-26T06:32:36;3.97;;;1.25;;
77984;SDS011;67177;47.240;-1.546;2023-06-26T06:35:01;4.83;;;1.40;;
77984;SDS011;67177;47.240;-1.546;2023-06-26T06:37:34;4.05;;;1.20;;
77984;SDS011;67177;47.240;-1.546;2023-06-26T06:40:00;3.92;;;1.20;;
77984;SDS011;67177;47.240;-1.546;2023-06-26T06:42:26;4.67;;;1.30;;
77984;SDS011;67177;47.240;-1.546;2023-06-26T06:44:52;4.57;;;1.35;;
77984;SDS011;67177;47.240;-1.546;2023-06-26T06:47:17;3.87;;;1.20;;
77984;SDS011;67177;47.240;-1.546;2023-06-26T06:49:43;4.53;;;1.23;;
77984;SDS011;67177;47.240;-1.546;2023-06-26T06:52:10;4.78;;;1.33;;
77984;SDS011;67177;47.240;-1.546;2023-06-26T06:54:50;4.43;;;1.02;;
77984;SDS011;67177;47.240;-1.546;2023-06-26T06:57:23;5.30;;;1.33;;
77984;SDS011;67177;47.240;-1.546;2023-06-26T06:59:50;3.38;;;1.00;;
77984;SDS011;67177;47.240;-1.546;2023-06-26T07:02:18;3.83;;;1.20;;
77984;SDS011;67177;47.240;-1.546;2023-06-26T07:04:44;4.57;;;1.23;;
77984;SDS011;67177;47.240;-1.546;2023-06-26T07:07:11;3.63;;;1.00;;
77984;SDS011;67177;47.240;-1.546;2023-06-26T07:09:38;4.10;;;1.10;;
77984;SDS011;67177;47.240;-1.546;2023-06-26T07:12:04;4.75;;;1.20;;
77984;SDS011;67177;47.240;-1.546;2023-06-26T07:14:30;5.07;;;1.10;;
77984;SDS011;67177;47.240;-1.546;2023-06-26T07:16:56;3.65;;;0.98;;
77984;SDS011;67177;47.240;-1.546;2023-06-26T07:19:21;3.77;;;1.20;;
77984;SDS011;67177;47.240;-1.546;2023-06-26T07:21:47;6.50;;;1.58;;
77984;SDS011;67177;47.240;-1.546;2023-06-26T07:24:13;4.10;;;1.10;;
77984;SDS011;67177;47.240;-1.546;2023-06-26T07:26:38;4.38;;;1.30;;
77984;SDS011;67177;47.240;-1.546;2023-06-26T07:29:04;5.40;;;1.10;;
77984;SDS011;67177;47.240;-1.546;2023-06-26T07:31:30;5.60;;;1.20;;
77984;SDS011;67177;47.240;-1.546;2023-06-26T07:33:55;4.90;;;1.27;;
77984;SDS011;67177;47.240;-1.546;2023-06-26T07:36:21;4.63;;;1.20;;
77984;SDS011;67177;47.240;-1.546;2023-06-26T07:38:47;4.70;;;1.25;;
77984;SDS011;67177;47.240;-1.546;2023-06-26T07:41:13;6.20;;;1.90;;
77984;SDS011;67177;47.240;-1.546;2023-06-26T07:43:39;6.00;;;1.60;;
77984;SDS011;67177;47.240;-1.546;2023-06-26T07:46:04;6.93;;;1.80;;
77984;SDS011;67177;47.240;-1.546;2023-06-26T07:48:30;7.50;;;1.77;;
77984;SDS011;67177;47.240;-1.546;2023-06-26T07:50:55;6.07;;;1.70;;
77984;SDS011;67177;47.240;-1.546;2023-06-26T07:53:21;6.53;;;1.40;;
77984;SDS011;67177;47.240;-1.546;2023-06-26T07:55:47;5.40;;;1.30;;
77984;SDS011;67177;47.240;-1.546;2023-06-26T07:58:12;5.18;;;1.50;;
77984;SDS011;67177;47.240;-1.546;2023-06-26T08:00:38;4.40;;;1.30;;
77984;SDS011;67177;47.240;-1.546;2023-06-26T08:03:05;5.32;;;1.38;;
77984;SDS011;67177;47.240;-1.546;2023-06-26T08:05:30;5.27;;;1.40;;
77984;SDS011;67177;47.240;-1.546;2023-06-26T08:07:56;5.32;;;1.50;;
77984;SDS011;67177;47.240;-1.546;2023-06-26T08:10:22;5.10;;;1.40;;
77984;SDS011;67177;47.240;-1.546;2023-06-26T08:12:47;4.80;;;1.42;;
77984;SDS011;67177;47.240;-1.546;2023-06-26T08:15:15;4.97;;;1.50;;
77984;SDS011;67177;47.240;-1.546;2023-06-26T08:17:41;7.35;;;1.40;;
77984;SDS011;67177;47.240;-1.546;2023-06-26T08:20:07;5.17;;;1.20;;
77984;SDS011;67177;47.240;-1.546;2023-06-26T08:22:33;5.15;;;1.20;;
77984;SDS011;67177;47.240;-1.546;2023-06-26T08:24:59;6.15;;;1.30;;
77984;SDS011;67177;47.240;-1.546;2023-06-26T08:27:25;6.07;;;1.70;;
77984;SDS011;67177;47.240;-1.546;2023-06-26T08:29:50;5.28;;;1.40;;
77984;SDS011;67177;47.240;-1.546;2023-06-26T08:32:16;5.97;;;1.60;;
77984;SDS011;67177;47.240;-1.546;2023-06-26T08:34:42;6.60;;;1.67;;
77984;SDS011;67177;47.240;-1.546;2023-06-26T08:37:07;4.80;;;1.20;;
77984;SDS011;67177;47.240;-1.546;2023-06-26T08:39:36;6.32;;;1.38;;
77984;SDS011;67177;47.240;-1.546;2023-06-26T08:42:01;5.80;;;1.58;;
77984;SDS011;67177;47.240;-1.546;2023-06-26T08:44:27;5.37;;;1.37;;
77984;SDS011;67177;47.240;-1.546;2023-06-26T08:46:53;5.25;;;1.40;;
77984;SDS011;67177;47.240;-1.546;2023-06-26T08:49:26;5.17;;;1.40;;
77984;SDS011;67177;47.240;-1.546;2023-06-26T08:52:06;5.88;;;1.35;;
77984;SDS011;67177;47.240;-1.546;2023-06-26T08:54:45;6.55;;;1.33;;
77984;SDS011;67177;47.240;-1.546;2023-06-26T08:57:17;4.97;;;1.23;;
77984;SDS011;67177;47.240;-1.546;2023-06-26T08:59:44;6.40;;;1.40;;
77984;SDS011;67177;47.240;-1.546;2023-06-26T09:02:12;4.67;;;1.10;;
77984;SDS011;67177;47.240;-1.546;2023-06-26T09:04:38;4.60;;;1.20;;
77984;SDS011;67177;47.240;-1.546;2023-06-26T09:07:04;5.10;;;1.45;;
77984;SDS011;67177;47.240;-1.546;2023-06-26T09:09:30;5.10;;;1.40;;
77984;SDS011;67177;47.240;-1.546;2023-06-26T09:11:55;5.20;;;1.60;;
77984;SDS011;67177;47.240;-1.546;2023-06-26T09:14:21;5.20;;;1.60;;
77984;SDS011;67177;47.240;-1.546;2023-06-26T09:16:47;4.82;;;1.20;;
77984;SDS011;67177;47.240;-1.546;2023-06-26T09:19:12;4.80;;;1.20;;
77984;SDS011;67177;47.240;-1.546;2023-06-26T09:21:42;4.97;;;1.35;;
77984;SDS011;67177;47.240;-1.546;2023-06-26T09:24:08;5.00;;;1.48;;
77984;SDS011;67177;47.240;-1.546;2023-06-26T09:26:38;4.03;;;1.20;;
77984;SDS011;67177;47.240;-1.546;2023-06-26T09:29:06;5.83;;;1.57;;
77984;SDS011;67177;47.240;-1.546;2023-06-26T09:31:32;6.38;;;1.45;;
77984;SDS011;67177;47.240;-1.546;2023-06-26T09:33:59;6.05;;;1.40;;
77984;SDS011;67177;47.240;-1.546;2023-06-26T09:36:27;6.05;;;1.60;;
77984;SDS011;67177;47.240;-1.546;2023-06-26T09:38:57;6.68;;;1.60;;
77984;SDS011;67177;47.240;-1.546;2023-06-26T09:41:24;4.77;;;1.40;;
77984;SDS011;67177;47.240;-1.546;2023-06-26T09:43:50;6.32;;;1.50;;
77984;SDS011;67177;47.240;-1.546;2023-06-26T09:46:25;4.88;;;1.50;;
77984;SDS011;67177;47.240;-1.546;2023-06-26T09:49:03;6.28;;;1.48;;
77984;SDS011;67177;47.240;-1.546;2023-06-26T09:51:30;6.50;;;1.38;;
77984;SDS011;67177;47.240;-1.546;2023-06-26T09:53:57;4.75;;;1.13;;
77984;SDS011;67177;47.240;-1.546;2023-06-26T09:56:24;5.68;;;1.58;;
77984;SDS011;67177;47.240;-1.546;2023-06-26T09:58:49;5.38;;;1.27;;
77984;SDS011;67177;47.240;-1.546;2023-06-26T10:01:16;5.00;;;1.33;;
77984;SDS011;67177;47.240;-1.546;2023-06-26T10:03:42;5.22;;;1.23;;
77984;SDS011;67177;47.240;-1.546;2023-06-26T10:06:09;5.85;;;1.40;;
77984;SDS011;67177;47.240;-1.546;2023-06-26T10:08:36;6.10;;;1.70;;
77984;SDS011;67177;47.240;-1.546;2023-06-26T10:11:04;4.55;;;1.30;;
77984;SDS011;67177;47.240;-1.546;2023-06-26T10:13:38;4.40;;;1.15;;
77984;SDS011;67177;47.240;-1.546;2023-06-26T10:16:07;5.20;;;1.30;;
77984;SDS011;67177;47.240;-1.546;2023-06-26T10:18:33;5.75;;;1.30;;
77984;SDS011;67177;47.240;-1.546;2023-06-26T10:21:02;5.10;;;1.50;;
77984;SDS011;67177;47.240;-1.546;2023-06-26T10:23:30;4.88;;;1.40;;
77984;SDS011;67177;47.240;-1.546;2023-06-26T10:25:57;4.65;;;1.30;;
77984;SDS011;67177;47.240;-1.546;2023-06-26T10:28:25;3.87;;;1.17;;
77984;SDS011;67177;47.240;-1.546;2023-06-26T10:30:53;6.78;;;1.27;;
77984;SDS011;67177;47.240;-1.546;2023-06-26T10:33:20;7.85;;;1.40;;
77984;SDS011;67177;47.240;-1.546;2023-06-26T10:35:47;4.07;;;1.23;;
77984;SDS011;67177;47.240;-1.546;2023-06-26T10:38:12;5.70;;;1.33;;
77984;SDS011;67177;47.240;-1.546;2023-06-26T10:40:42;5.32;;;1.45;;
77984;SDS011;67177;47.240;-1.546;2023-06-26T10:43:12;6.40;;;1.40;;
77984;SDS011;67177;47.240;-1.546;2023-06-26T10:45:48;5.43;;;1.40;;
77984;SDS011;67177;47.240;-1.546;2023-06-26T10:48:19;4.93;;;1.30;;
77984;SDS011;67177;47.240;-1.546;2023-06-26T10:50:49;4.35;;;1.33;;
77984;SDS011;67177;47.240;-1.546;2023-06-26T10:55:54;4.43;;;1.40;;
77984;SDS011;67177;47.240;-1.546;2023-06-26T10:58:28;4.40;;;1.30;;
77984;SDS011;67177;47.240;-1.546;2023-06-26T11:06:20;5.72;;;1.40;;
77984;SDS011;67177;47.240;-1.546;2023-06-26T11:08:47;5.05;;;1.20;;
77984;SDS011;67177;47.240;-1.546;2023-06-26T11:11:15;4.32;;;1.40;;
77984;SDS011;67177;47.240;-1.546;2023-06-26T11:13:42;5.32;;;1.42;;
77984;SDS011;67177;47.240;-1.546;2023-06-26T11:16:11;4.75;;;1.30;;
77984;SDS011;67177;47.240;-1.546;2023-06-26T11:18:38;6.85;;;1.50;;
77984;SDS011;67177;47.240;-1.546;2023-06-26T11:21:07;4.38;;;1.40;;
77984;SDS011;67177;47.240;-1.546;2023-06-26T11:23:34;4.15;;;1.17;;
77984;SDS011;67177;47.240;-1.546;2023-06-26T11:26:13;4.68;;;1.20;;
77984;SDS011;67177;47.240;-1.546;2023-06-26T11:28:52;5.28;;;1.40;;
77984;SDS011;67177;47.240;-1.546;2023-06-26T11:31:28;6.80;;;1.60;;
77984;SDS011;67177;47.240;-1.546;2023-06-26T11:33:55;4.55;;;1.35;;
77984;SDS011;67177;47.240;-1.546;2023-06-26T11:36:25;4.72;;;1.33;;
77984;SDS011;67177;47.240;-1.546;2023-06-26T11:38:59;3.70;;;1.08;;
77984;SDS011;67177;47.240;-1.546;2023-06-26T11:41:29;4.47;;;1.33;;
77984;SDS011;67177;47.240;-1.546;2023-06-26T11:43:59;4.85;;;1.42;;
77984;SDS011;67177;47.240;-1.546;2023-06-26T11:46:28;4.35;;;1.50;;
77984;SDS011;67177;47.240;-1.546;2023-06-26T11:48:55;4.13;;;1.00;;
77984;SDS011;67177;47.240;-1.546;2023-06-26T11:51:20;4.75;;;1.20;;
77984;SDS011;67177;47.240;-1.546;2023-06-26T11:53:47;5.03;;;1.27;;
77984;SDS011;67177;47.240;-1.546;2023-06-26T11:56:13;5.55;;;1.50;;
77984;SDS011;67177;47.240;-1.546;2023-06-26T11:58:56;3.60;;;1.17;;
77984;SDS011;67177;47.240;-1.546;2023-06-26T12:01:47;3.63;;;1.00;;
77984;SDS011;67177;47.240;-1.546;2023-06-26T12:04:12;4.30;;;1.10;;
77984;SDS011;67177;47.240;-1.546;2023-06-26T12:06:42;4.38;;;1.27;;
77984;SDS011;67177;47.240;-1.546;2023-06-26T12:09:11;3.85;;;1.02;;
77984;SDS011;67177;47.240;-1.546;2023-06-26T12:11:38;4.53;;;1.65;;
77984;SDS011;67177;47.240;-1.546;2023-06-26T12:14:06;4.53;;;1.25;;
77984;SDS011;67177;47.240;-1.546;2023-06-26T12:16:32;4.38;;;1.10;;
77984;SDS011;67177;47.240;-1.546;2023-06-26T12:18:59;3.95;;;1.30;;
77984;SDS011;67177;47.240;-1.546;2023-06-26T12:23:59;5.03;;;1.33;;
77984;SDS011;67177;47.240;-1.546;2023-06-26T12:26:26;4.55;;;1.25;;
77984;SDS011;67177;47.240;-1.546;2023-06-26T12:28:53;5.35;;;1.38;;
77984;SDS011;67177;47.240;-1.546;2023-06-26T12:31:20;4.70;;;1.50;;
77984;SDS011;67177;47.240;-1.546;2023-06-26T12:33:46;5.03;;;1.38;;
77984;SDS011;67177;47.240;-1.546;2023-06-26T12:36:12;6.00;;;1.30;;
77984;SDS011;67177;47.240;-1.546;2023-06-26T12:38:39;3.92;;;1.20;;
77984;SDS011;67177;47.240;-1.546;2023-06-26T12:41:13;5.82;;;1.50;;
77984;SDS011;67177;47.240;-1.546;2023-06-26T12:43:39;4.57;;;1.27;;
77984;SDS011;67177;47.240;-1.546;2023-06-26T12:46:05;4.25;;;1.23;;
77984;SDS011;67177;47.240;-1.546;2023-06-26T12:48:44;4.18;;;1.10;;
77984;SDS011;67177;47.240;-1.546;2023-06-26T12:51:13;4.05;;;1.10;;
77984;SDS011;67177;47.240;-1.546;2023-06-26T12:53:40;4.38;;;1.15;;
77984;SDS011;67177;47.240;-1.546;2023-06-26T12:56:07;5.95;;;1.42;;
77984;SDS011;67177;47.240;-1.546;2023-06-26T12:58:35;4.82;;;1.30;;
77984;SDS011;67177;47.240;-1.546;2023-06-26T13:01:03;4.97;;;1.40;;
77984;SDS011;67177;47.240;-1.546;2023-06-26T13:03:29;4.93;;;1.67;;
77984;SDS011;67177;47.240;-1.546;2023-06-26T13:05:55;4.95;;;1.55;;
77984;SDS011;67177;47.240;-1.546;2023-06-26T13:08:21;4.03;;;1.20;;
77984;SDS011;67177;47.240;-1.546;2023-06-26T13:10:46;3.72;;;1.10;;
77984;SDS011;67177;47.240;-1.546;2023-06-26T13:13:12;3.80;;;1.30;;
77984;SDS011;67177;47.240;-1.546;2023-06-26T13:15:38;4.05;;;1.27;;
77984;SDS011;67177;47.240;-1.546;2023-06-26T13:18:04;4.37;;;1.40;;
77984;SDS011;67177;47.240;-1.546;2023-06-26T13:20:29;4.82;;;1.40;;
77984;SDS011;67177;47.240;-1.546;2023-06-26T13:22:55;5.50;;;1.77;;
77984;SDS011;67177;47.240;-1.546;2023-06-26T13:25:21;5.40;;;1.50;;
77984;SDS011;67177;47.240;-1.546;2023-06-26T13:27:47;4.07;;;1.40;;
77984;SDS011;67177;47.240;-1.546;2023-06-26T13:30:14;4.45;;;1.38;;
77984;SDS011;67177;47.240;-1.546;2023-06-26T13:32:41;4.28;;;1.42;;
77984;SDS011;67177;47.240;-1.546;2023-06-26T13:35:08;3.40;;;1.13;;
77984;SDS011;67177;47.240;-1.546;2023-06-26T13:37:34;3.63;;;1.10;;
77984;SDS011;67177;47.240;-1.546;2023-06-26T13:40:01;4.20;;;1.10;;
77984;SDS011;67177;47.240;-1.546;2023-06-26T13:42:28;3.78;;;1.10;;
77984;SDS011;67177;47.240;-1.546;2023-06-26T13:44:54;3.58;;;1.10;;
77984;SDS011;67177;47.240;-1.546;2023-06-26T13:47:20;4.10;;;1.20;;
77984;SDS011;67177;47.240;-1.546;2023-06-26T13:49:46;4.30;;;1.20;;
77984;SDS011;67177;47.240;-1.546;2023-06-26T13:52:12;4.30;;;1.40;;
77984;SDS011;67177;47.240;-1.546;2023-06-26T13:54:37;4.37;;;1.47;;
77984;SDS011;67177;47.240;-1.546;2023-06-26T13:57:05;4.03;;;1.30;;
77984;SDS011;67177;47.240;-1.546;2023-06-26T13:59:31;5.95;;;1.42;;
77984;SDS011;67177;47.240;-1.546;2023-06-26T14:01:58;4.22;;;1.30;;
77984;SDS011;67177;47.240;-1.546;2023-06-26T14:04:24;6.27;;;1.70;;
77984;SDS011;67177;47.240;-1.546;2023-06-26T14:06:50;5.32;;;1.40;;
77984;SDS011;67177;47.240;-1.546;2023-06-26T14:09:16;5.50;;;1.50;;
77984;SDS011;67177;47.240;-1.546;2023-06-26T14:11:41;4.10;;;1.40;;
77984;SDS011;67177;47.240;-1.546;2023-06-26T14:14:08;5.65;;;1.70;;
77984;SDS011;67177;47.240;-1.546;2023-06-26T14:16:34;4.75;;;1.42;;
77984;SDS011;67177;47.240;-1.546;2023-06-26T14:18:59;5.03;;;1.40;;
77984;SDS011;67177;47.240;-1.546;2023-06-26T14:21:25;5.88;;;1.50;;
77984;SDS011;67177;47.240;-1.546;2023-06-26T14:23:52;4.72;;;1.40;;
77984;SDS011;67177;47.240;-1.546;2023-06-26T14:26:18;3.85;;;1.23;;
77984;SDS011;67177;47.240;-1.546;2023-06-26T14:28:44;3.75;;;1.10;;
77984;SDS011;67177;47.240;-1.546;2023-06-26T14:31:10;3.92;;;1.00;;
77984;SDS011;67177;47.240;-1.546;2023-06-26T14:33:35;4.07;;;1.20;;
77984;SDS011;67177;47.240;-1.546;2023-06-26T14:36:01;4.25;;;1.13;;
77984;SDS011;67177;47.240;-1.546;2023-06-26T14:38:27;5.13;;;1.15;;
77984;SDS011;67177;47.240;-1.546;2023-06-26T14:40:53;4.37;;;1.10;;
77984;SDS011;67177;47.240;-1.546;2023-06-26T14:43:18;4.78;;;1.50;;
77984;SDS011;67177;47.240;-1.546;2023-06-26T14:45:44;5.80;;;1.60;;
77984;SDS011;67177;47.240;-1.546;2023-06-26T14:48:10;5.30;;;1.30;;
77984;SDS011;67177;47.240;-1.546;2023-06-26T14:50:35;7.00;;;1.80;;
77984;SDS011;67177;47.240;-1.546;2023-06-26T14:53:01;5.07;;;1.60;;
77984;SDS011;67177;47.240;-1.546;2023-06-26T14:55:27;4.72;;;1.33;;